Time;durP1;ratioP1;P1;durP2;ratioP2;P2;SDS_P1;SDS_P2;PMS_P1;PMS_P2;Temp;Humidity;BMP_temperature;BMP_pressure;BME280_temperature;BME280_humidity;BME280_pressure;Samples;Min_cycle;Max_cycle;Signal;HPM_P1;HPM_P2
2020/12/10 18:43:12;;;;;;;46.53;20.07;;;1.80;99.90;;;;;;4091687;28;22533;-59
2020/12/10 18:45:38;;;;;;;48.83;19.90;;;1.90;99.90;;;;;;5064604;28;20447;-63
2020/12/10 18:48:04;;;;;;;53.07;20.63;;;1.90;99.90;;;;;;5065869;28;20516;-62
2020/12/10 18:50:30;;;;;;;44.20;20.73;;;1.90;99.90;;;;;;5066070;28;20455;-63
2020/12/10 18:52:56;;;;;;;49.43;19.80;;;2.00;99.90;;;;;;5065818;28;20532;-62
2020/12/10 18:55:23;;;;;;;53.83;22.03;;;2.00;99.90;;;;;;5064685;28;20482;-62
2020/12/10 18:57:49;;;;;;;42.83;20.57;;;2.00;99.90;;;;;;5067006;28;20454;-62
2020/12/10 19:00:16;;;;;;;44.73;19.27;;;2.00;99.90;;;;;;5065809;28;20451;-63
2020/12/10 19:02:44;;;;;;;49.40;21.93;;;2.00;99.90;;;;;;5064605;28;20486;-62
2020/12/10 19:05:13;;;;;;;53.83;23.43;;;2.00;99.90;;;;;;5066035;28;20481;-63
2020/12/10 19:07:39;;;;;;;49.80;21.77;;;2.00;99.90;;;;;;5062408;28;20455;-62
2020/12/10 19:10:06;;;;;;;48.23;20.70;;;2.10;99.90;;;;;;5058285;28;20451;-62
2020/12/10 19:12:32;;;;;;;52.20;19.27;;;2.10;99.90;;;;;;5058180;28;20474;-62
2020/12/10 19:14:59;;;;;;;48.07;18.67;;;2.00;99.90;;;;;;5058032;28;20487;-62
2020/12/10 19:17:26;;;;;;;51.93;22.10;;;2.00;99.90;;;;;;5059149;28;20597;-62
2020/12/10 19:19:52;;;;;;;47.50;22.00;;;2.10;99.90;;;;;;5058579;28;20532;-62
2020/12/10 19:22:19;;;;;;;49.23;20.50;;;2.10;99.90;;;;;;5057630;28;20485;-62
2020/12/10 19:24:45;;;;;;;62.00;23.90;;;2.10;99.90;;;;;;5057905;28;20462;-62
2020/12/10 19:27:11;;;;;;;43.57;20.20;;;2.10;99.90;;;;;;5057981;28;20455;-62
2020/12/10 19:29:37;;;;;;;42.83;18.13;;;2.10;99.90;;;;;;5057775;28;20462;-63
2020/12/10 19:32:05;;;;;;;46.57;19.13;;;2.10;99.90;;;;;;5058031;28;20540;-62
2020/12/10 19:34:32;;;;;;;47.70;19.10;;;2.10;99.90;;;;;;5057821;28;20471;-62
2020/12/10 19:36:59;;;;;;;51.63;17.90;;;2.20;99.90;;;;;;5058550;28;20454;-62
2020/12/10 19:39:25;;;;;;;43.33;18.27;;;2.20;99.90;;;;;;5060105;28;20841;-63
2020/12/10 19:41:51;;;;;;;37.23;17.63;;;2.20;99.90;;;;;;5057889;28;20465;-64
2020/12/10 19:44:18;;;;;;;48.47;20.10;;;2.10;99.90;;;;;;5058240;28;20479;-63
2020/12/10 19:46:45;;;;;;;37.97;16.50;;;2.10;99.90;;;;;;5057701;28;20455;-62
2020/12/10 19:49:12;;;;;;;40.43;16.70;;;2.10;99.90;;;;;;5057793;28;20470;-62
2020/12/10 19:51:39;;;;;;;33.73;16.73;;;2.10;99.90;;;;;;5057237;28;20455;-62
2020/12/10 19:54:06;;;;;;;35.20;16.97;;;2.10;99.90;;;;;;5057676;28;20476;-62
2020/12/10 19:56:32;;;;;;;32.07;15.07;;;2.10;99.90;;;;;;5057701;28;20504;-62
2020/12/10 19:59:00;;;;;;;42.30;18.27;;;2.10;99.90;;;;;;5057833;28;20531;-62
2020/12/10 20:01:31;;;;;;;31.97;15.30;;;2.10;99.90;;;;;;5057103;28;20517;-62
2020/12/10 20:03:59;;;;;;;36.93;17.00;;;2.00;99.90;;;;;;5057599;28;20443;-62
2020/12/10 20:06:26;;;;;;;34.93;15.73;;;2.00;99.90;;;;;;5057062;28;20456;-62
2020/12/10 20:08:53;;;;;;;37.60;16.20;;;2.00;99.90;;;;;;5057108;28;20455;-61
2020/12/10 20:11:19;;;;;;;30.87;15.80;;;2.10;99.90;;;;;;5057723;28;20455;-61
2020/12/10 20:13:46;;;;;;;37.03;15.23;;;2.10;99.90;;;;;;5057255;28;20513;-62
2020/12/10 20:16:12;;;;;;;35.00;15.27;;;2.10;99.90;;;;;;5058022;28;20463;-62
2020/12/10 20:18:39;;;;;;;34.07;15.40;;;2.00;99.90;;;;;;5057763;28;20772;-62
2020/12/10 20:21:05;;;;;;;34.10;15.97;;;2.00;99.90;;;;;;5058288;28;20913;-62
2020/12/10 20:23:31;;;;;;;31.90;15.43;;;2.10;99.90;;;;;;5057754;28;20470;-62
2020/12/10 20:26:03;;;;;;;33.60;15.80;;;2.10;99.90;;;;;;5057336;28;20461;-62
2020/12/10 20:28:29;;;;;;;34.50;16.20;;;2.10;99.90;;;;;;5057912;28;20450;-64
2020/12/10 20:30:57;;;;;;;37.77;17.90;;;2.10;99.90;;;;;;5057553;28;20461;-62
2020/12/10 20:33:23;;;;;;;35.77;16.20;;;2.10;99.90;;;;;;5057648;28;20459;-62
2020/12/10 20:35:56;;;;;;;32.17;16.70;;;2.10;99.90;;;;;;5057723;28;20928;-62
2020/12/10 20:38:23;;;;;;;42.33;17.40;;;2.10;99.90;;;;;;5057547;28;20503;-62
2020/12/10 20:40:49;;;;;;;35.03;15.70;;;2.00;99.90;;;;;;5057138;28;20509;-61
2020/12/10 20:43:16;;;;;;;33.70;15.00;;;2.00;99.90;;;;;;5057130;28;20483;-62
2020/12/10 20:45:42;;;;;;;38.60;15.87;;;2.00;99.90;;;;;;5057055;28;20446;-62
2020/12/10 20:48:08;;;;;;;31.80;14.40;;;2.00;99.90;;;;;;5056806;28;20447;-62
2020/12/10 20:50:37;;;;;;;34.63;14.97;;;2.00;99.90;;;;;;5056193;28;20451;-63
2020/12/10 20:53:03;;;;;;;31.13;13.97;;;2.00;99.90;;;;;;5056686;28;20459;-64
2020/12/10 20:55:30;;;;;;;36.30;15.97;;;2.00;99.90;;;;;;5056155;28;20548;-63
2020/12/10 20:57:56;;;;;;;35.50;16.77;;;2.00;99.90;;;;;;5056488;28;20455;-63
2020/12/10 21:00:23;;;;;;;29.00;14.87;;;1.90;99.90;;;;;;5056318;28;20489;-63
2020/12/10 21:02:50;;;;;;;32.87;16.90;;;1.90;99.90;;;;;;5056282;28;20889;-63
2020/12/10 21:05:17;;;;;;;37.90;16.13;;;1.90;99.90;;;;;;5055737;28;20499;-62
2020/12/10 21:07:43;;;;;;;33.70;15.43;;;1.90;99.90;;;;;;5055822;28;20608;-63
2020/12/10 21:10:09;;;;;;;33.37;15.90;;;1.90;99.90;;;;;;5055878;28;20456;-62
2020/12/10 21:12:36;;;;;;;35.50;16.10;;;1.90;99.90;;;;;;5055759;28;20466;-63
2020/12/10 21:15:02;;;;;;;33.50;14.90;;;1.90;99.90;;;;;;5055550;28;20593;-63
2020/12/10 21:17:29;;;;;;;33.00;15.50;;;1.90;99.90;;;;;;5055809;28;20489;-62
2020/12/10 21:19:55;;;;;;;37.40;16.20;;;1.90;99.90;;;;;;5056069;28;20904;-63
2020/12/10 21:22:21;;;;;;;34.47;15.80;;;1.90;99.90;;;;;;5056989;28;20451;-63
2020/12/10 21:24:47;;;;;;;37.17;16.63;;;1.90;99.90;;;;;;5061938;28;20542;-63
2020/12/10 21:27:14;;;;;;;41.20;16.63;;;1.80;99.90;;;;;;5061880;28;20465;-63
2020/12/10 21:29:40;;;;;;;38.77;15.40;;;1.80;99.90;;;;;;5058099;28;20451;-62
2020/12/10 21:32:06;;;;;;;33.30;15.27;;;1.80;99.90;;;;;;5058126;28;20521;-63
2020/12/10 21:34:33;;;;;;;38.27;16.00;;;1.80;99.90;;;;;;5057332;28;20483;-61
2020/12/10 21:36:59;;;;;;;36.50;14.70;;;1.90;99.90;;;;;;5057905;28;20451;-64
2020/12/10 21:39:26;;;;;;;35.67;14.50;;;1.90;99.90;;;;;;5057787;28;20455;-63
2020/12/10 21:41:53;;;;;;;36.90;16.73;;;2.00;99.90;;;;;;5058477;28;20455;-62
2020/12/10 21:44:19;;;;;;;35.83;16.43;;;1.90;99.90;;;;;;5058534;28;20482;-64
2020/12/10 21:46:45;;;;;;;41.13;17.97;;;1.90;99.90;;;;;;5058040;28;20905;-64
2020/12/10 21:49:11;;;;;;;39.37;18.13;;;1.80;99.90;;;;;;5059539;28;20505;-63
2020/12/10 21:51:38;;;;;;;37.00;16.30;;;1.80;99.90;;;;;;5061057;28;20905;-63
2020/12/10 21:54:04;;;;;;;39.50;15.43;;;1.80;99.90;;;;;;5062555;28;20486;-63
2020/12/10 21:56:30;;;;;;;35.37;15.97;;;1.80;99.90;;;;;;5062526;28;20831;-62
2020/12/10 21:58:56;;;;;;;41.97;18.23;;;1.80;99.90;;;;;;5063767;28;20487;-62
2020/12/10 22:01:23;;;;;;;37.50;17.93;;;1.80;99.90;;;;;;5062384;28;20823;-61
2020/12/10 22:03:49;;;;;;;34.50;16.33;;;1.90;99.90;;;;;;5063997;28;20447;-63
2020/12/10 22:06:20;;;;;;;34.83;15.70;;;1.90;99.90;;;;;;5062926;28;20485;-63
2020/12/10 22:08:47;;;;;;;43.30;17.13;;;1.90;99.90;;;;;;5062495;28;20436;-63
2020/12/10 22:11:20;;;;;;;32.80;13.80;;;1.90;99.90;;;;;;5059381;28;20463;-63
2020/12/10 22:13:47;;;;;;;46.67;16.40;;;1.90;99.90;;;;;;5057498;28;20834;-62
2020/12/10 22:16:13;;;;;;;32.63;16.80;;;1.90;99.90;;;;;;5056236;28;20465;-63
2020/12/10 22:18:39;;;;;;;34.20;15.53;;;1.90;99.90;;;;;;5056725;28;20460;-60
2020/12/10 22:21:05;;;;;;;33.23;15.50;;;1.80;99.90;;;;;;5057962;28;20508;-60
2020/12/10 22:23:31;;;;;;;39.87;16.10;;;1.80;99.90;;;;;;5056127;28;20455;-61
2020/12/10 22:25:58;;;;;;;35.70;16.03;;;1.80;99.90;;;;;;5055812;28;20498;-58
2020/12/10 22:28:24;;;;;;;35.00;16.27;;;1.80;99.90;;;;;;5054958;28;20766;-60
2020/12/10 22:30:50;;;;;;;38.20;16.07;;;1.90;99.90;;;;;;5056202;28;20451;-60
2020/12/10 22:33:16;;;;;;;30.77;14.30;;;1.90;99.90;;;;;;5059613;28;20462;-60
2020/12/10 22:35:42;;;;;;;35.63;16.90;;;1.90;99.90;;;;;;5059310;28;20474;-60
2020/12/10 22:38:09;;;;;;;34.10;16.47;;;1.90;99.90;;;;;;5060484;28;20485;-61
2020/12/10 22:40:35;;;;;;;40.50;15.07;;;1.90;99.90;;;;;;5061497;28;20521;-59
2020/12/10 22:43:01;;;;;;;37.67;14.60;;;2.00;99.90;;;;;;5059862;28;20513;-59
2020/12/10 22:45:28;;;;;;;34.30;15.60;;;1.90;99.90;;;;;;5060562;28;20432;-59
2020/12/10 22:47:54;;;;;;;35.13;17.23;;;1.80;99.90;;;;;;5058593;28;20458;-60
2020/12/10 22:50:20;;;;;;;39.90;16.77;;;1.70;99.90;;;;;;5058689;28;20773;-59
2020/12/10 22:52:46;;;;;;;40.07;15.27;;;1.60;99.90;;;;;;5058818;28;20508;-60
2020/12/10 22:55:12;;;;;;;32.97;14.90;;;1.60;99.90;;;;;;5058643;28;20538;-59
2020/12/10 22:57:38;;;;;;;41.10;17.50;;;1.60;99.90;;;;;;5058455;28;20455;-58
2020/12/10 23:00:08;;;;;;;34.77;14.80;;;1.60;99.90;;;;;;5058333;28;20455;-60
2020/12/10 23:02:34;;;;;;;32.77;14.83;;;1.60;99.90;;;;;;5058435;28;20771;-59
2020/12/10 23:05:01;;;;;;;28.30;13.27;;;1.60;99.90;;;;;;5058171;28;20513;-58
2020/12/10 23:07:27;;;;;;;33.13;14.00;;;1.60;99.90;;;;;;5058350;28;20762;-58
2020/12/10 23:09:53;;;;;;;29.97;13.87;;;1.70;99.90;;;;;;5058182;28;20683;-59
2020/12/10 23:12:19;;;;;;;29.73;15.23;;;1.70;99.90;;;;;;5058315;28;20517;-58
2020/12/10 23:14:45;;;;;;;31.97;13.57;;;1.70;99.90;;;;;;5057963;28;20776;-59
2020/12/10 23:17:12;;;;;;;27.93;13.43;;;1.70;99.90;;;;;;5058081;28;20493;-58
2020/12/10 23:19:38;;;;;;;30.47;12.47;;;1.70;99.90;;;;;;5057896;28;20459;-59
2020/12/10 23:22:04;;;;;;;31.40;14.47;;;1.60;99.90;;;;;;5058108;28;20455;-59
2020/12/10 23:24:30;;;;;;;30.73;13.60;;;1.60;99.90;;;;;;5058188;28;20451;-59
2020/12/10 23:26:56;;;;;;;35.20;15.43;;;1.60;99.90;;;;;;5058111;28;20767;-58
2020/12/10 23:29:22;;;;;;;31.67;14.57;;;1.60;99.90;;;;;;5058149;28;20815;-59
2020/12/10 23:31:48;;;;;;;30.37;14.07;;;1.60;99.90;;;;;;5058579;28;20451;-55
2020/12/10 23:34:15;;;;;;;34.50;15.33;;;1.60;99.90;;;;;;5058522;28;20605;-58
2020/12/10 23:36:41;;;;;;;34.57;15.03;;;1.60;99.90;;;;;;5059964;28;20486;-59
2020/12/10 23:39:10;;;;;;;30.50;15.27;;;1.50;99.90;;;;;;5058773;28;20505;-59
2020/12/10 23:41:37;;;;;;;34.17;14.60;;;1.50;99.90;;;;;;5057611;28;20451;-59
2020/12/10 23:44:04;;;;;;;28.57;13.57;;;1.50;99.90;;;;;;5058585;28;20475;-60
2020/12/10 23:46:30;;;;;;;34.03;14.10;;;1.60;99.90;;;;;;5057901;28;20462;-59
2020/12/10 23:48:56;;;;;;;30.27;14.10;;;1.50;99.90;;;;;;5057534;28;20481;-60
2020/12/10 23:51:23;;;;;;;34.90;14.27;;;1.50;99.90;;;;;;5057407;28;20459;-57
2020/12/10 23:53:49;;;;;;;28.43;14.13;;;1.40;99.90;;;;;;5058035;28;20519;-57
2020/12/10 23:56:15;;;;;;;34.80;13.57;;;1.40;99.90;;;;;;5058237;28;20481;-57
2020/12/10 23:58:41;;;;;;;37.47;15.23;;;1.50;99.90;;;;;;5057876;28;20811;-58
